Airfield :
LOGIN :

Register | Disclaimer

   EN    FR    IT 

 










Legend :    VFR   Marginal VFR   IFR   Intensive IFR   Very Intensive IFR
Visi :
Ceiling :
>= 8 km
>= 3000ft
5 to 8 km
1000 to 3000 ft
1500m to 5 km
500 to 1000 ft
800 to 1500m
200 to 500 ft
< 800m
< 200 ft
Symbols :   Thunderstorms  Fog  Heavy snow  Heavy precipitations  Wind > 20 kt
SIGMETs :     Misc.  Thunderstorms  Icing  Turbulence  Mountain Waves  Volcanic Ashes







- Airport Elevation : 1079 ft


ETIK - Illesheim Air Base

CURRENT METAR :
  • 262258Z AUTO 00000KT 9999 FEW190 16/12 A2990 RMK AO2 SLP114 T01590123 402870155

EXPIRED METARs :
  • 262158Z AUTO 00000KT 9999 BKN220 17/13 A2990 RMK AO2 SLP114 T01680127
  • 262058Z AUTO 00000KT 9999 FEW220 20/13 A2989 RMK AO2 RAB37E46 SLP110 P0000 60000 T01980127 52009

TAF TAF ETIK
Valid from the 26 at 21:00 until the 28 at 03:00 UTC


262119Z 2621/2803 VRB06KT 9999 FEW050 SCT150 QNH2976INS
BECMG 2710/2711 09012KT 9000 -SHRA SCT020 BKN100 QNH2968INS
TEMPO 2714/2720 8000 -TSRA BKN020CB
BECMG 2719/2720 29009KT 9999 NSW FEW030 QNH2971INS TX26/2714Z TN15/2703Z
No reported NOTAMs for that airfield.
1 SIGMET reported for the Langen FIR (EDGG) :
 
Embedded thunderstorms
EDGG SIGMET 2 VALID 262200/270100 EDZF
EDGG LANGEN FIR EMBD TS FCST SW OF LINE N4930 E00630 - N4845 E00945 TOP FL390 MOV NE NC=



MET'MAP, your aeronautical weather chart ! - Copyright ORBIFLY December 2007 - Disclaimer

ORBIFLY MET'MAP TEAM :

Programming & Development : Alexandra Zaïnal
Concept & Development : Baudouin d'Aumeries
Co-Development & Prog : Marc-Olivier Méhu
Technical & hardware support : Manuel Goepfert

Contact : metmap@orbifly.com




SOURCES & CREDITS :

   NOAA